sensor_id;sensor_type;location;lat;lon;timestamp;P1;durP1;ratioP1;P2;durP2;ratioP2
24305;SDS011;12423;48.768;8.850;2023-04-06T00:01:13;10.85;;;6.03;;
24305;SDS011;12423;48.768;8.850;2023-04-06T00:03:14;13.95;;;6.50;;
24305;SDS011;12423;48.768;8.850;2023-04-06T00:05:16;17.08;;;8.45;;
24305;SDS011;12423;48.768;8.850;2023-04-06T00:07:17;18.08;;;7.97;;
24305;SDS011;12423;48.768;8.850;2023-04-06T00:09:18;16.90;;;9.20;;
24305;SDS011;12423;48.768;8.850;2023-04-06T00:11:19;16.52;;;8.80;;
24305;SDS011;12423;48.768;8.850;2023-04-06T00:13:20;13.82;;;7.85;;
24305;SDS011;12423;48.768;8.850;2023-04-06T00:15:21;14.15;;;7.57;;
24305;SDS011;12423;48.768;8.850;2023-04-06T00:17:22;13.02;;;7.68;;
24305;SDS011;12423;48.768;8.850;2023-04-06T00:19:23;14.88;;;7.88;;
24305;SDS011;12423;48.768;8.850;2023-04-06T00:21:24;12.73;;;6.03;;
24305;SDS011;12423;48.768;8.850;2023-04-06T00:23:26;13.30;;;7.15;;
24305;SDS011;12423;48.768;8.850;2023-04-06T00:25:27;16.35;;;6.63;;
24305;SDS011;12423;48.768;8.850;2023-04-06T00:27:28;14.30;;;6.65;;
24305;SDS011;12423;48.768;8.850;2023-04-06T00:29:29;10.82;;;6.30;;
24305;SDS011;12423;48.768;8.850;2023-04-06T00:31:30;14.20;;;6.65;;
24305;SDS011;12423;48.768;8.850;2023-04-06T00:33:32;10.00;;;6.07;;
24305;SDS011;12423;48.768;8.850;2023-04-06T00:35:33;10.40;;;5.70;;
24305;SDS011;12423;48.768;8.850;2023-04-06T00:37:34;11.18;;;6.53;;
24305;SDS011;12423;48.768;8.850;2023-04-06T00:39:35;10.82;;;5.88;;
24305;SDS011;12423;48.768;8.850;2023-04-06T00:41:36;17.13;;;6.43;;
24305;SDS011;12423;48.768;8.850;2023-04-06T00:43:37;9.48;;;5.80;;
24305;SDS011;12423;48.768;8.850;2023-04-06T00:45:41;12.77;;;6.05;;
24305;SDS011;12423;48.768;8.850;2023-04-06T00:47:42;13.27;;;6.68;;
24305;SDS011;12423;48.768;8.850;2023-04-06T00:49:43;10.13;;;6.20;;
24305;SDS011;12423;48.768;8.850;2023-04-06T00:51:44;9.70;;;5.35;;
24305;SDS011;12423;48.768;8.850;2023-04-06T00:53:45;11.68;;;6.10;;
24305;SDS011;12423;48.768;8.850;2023-04-06T00:55:47;10.35;;;6.18;;
24305;SDS011;12423;48.768;8.850;2023-04-06T00:57:48;14.13;;;6.20;;
24305;SDS011;12423;48.768;8.850;2023-04-06T00:59:51;11.90;;;5.63;;
24305;SDS011;12423;48.768;8.850;2023-04-06T01:01:53;11.60;;;5.65;;
24305;SDS011;12423;48.768;8.850;2023-04-06T01:04:07;10.00;;;5.45;;
24305;SDS011;12423;48.768;8.850;2023-04-06T01:06:14;11.65;;;6.07;;
24305;SDS011;12423;48.768;8.850;2023-04-06T01:08:17;9.23;;;5.55;;
24305;SDS011;12423;48.768;8.850;2023-04-06T01:10:26;12.05;;;6.18;;
24305;SDS011;12423;48.768;8.850;2023-04-06T01:12:55;10.65;;;6.00;;
24305;SDS011;12423;48.768;8.850;2023-04-06T01:15:15;12.77;;;5.78;;
24305;SDS011;12423;48.768;8.850;2023-04-06T01:17:19;9.90;;;5.95;;
24305;SDS011;12423;48.768;8.850;2023-04-06T01:19:21;13.73;;;6.50;;
24305;SDS011;12423;48.768;8.850;2023-04-06T01:21:25;9.68;;;5.07;;
24305;SDS011;12423;48.768;8.850;2023-04-06T01:23:46;11.40;;;6.28;;
24305;SDS011;12423;48.768;8.850;2023-04-06T01:25:52;11.82;;;5.53;;
24305;SDS011;12423;48.768;8.850;2023-04-06T01:27:53;11.88;;;5.90;;
24305;SDS011;12423;48.768;8.850;2023-04-06T01:29:57;13.32;;;6.43;;
24305;SDS011;12423;48.768;8.850;2023-04-06T01:32:17;16.67;;;6.38;;
24305;SDS011;12423;48.768;8.850;2023-04-06T01:34:24;9.18;;;5.90;;
24305;SDS011;12423;48.768;8.850;2023-04-06T01:36:25;9.13;;;4.93;;
24305;SDS011;12423;48.768;8.850;2023-04-06T01:38:35;12.82;;;6.35;;
24305;SDS011;12423;48.768;8.850;2023-04-06T01:40:36;9.20;;;5.45;;
24305;SDS011;12423;48.768;8.850;2023-04-06T01:42:37;9.20;;;5.13;;
24305;SDS011;12423;48.768;8.850;2023-04-06T01:44:40;8.77;;;5.68;;
24305;SDS011;12423;48.768;8.850;2023-04-06T01:46:45;10.27;;;5.32;;
24305;SDS011;12423;48.768;8.850;2023-04-06T01:48:51;9.23;;;5.22;;
24305;SDS011;12423;48.768;8.850;2023-04-06T01:50:58;12.48;;;5.85;;
24305;SDS011;12423;48.768;8.850;2023-04-06T01:53:04;9.10;;;5.53;;
24305;SDS011;12423;48.768;8.850;2023-04-06T01:55:06;10.60;;;5.78;;
24305;SDS011;12423;48.768;8.850;2023-04-06T01:57:36;12.05;;;6.00;;
24305;SDS011;12423;48.768;8.850;2023-04-06T01:59:48;11.70;;;5.57;;
24305;SDS011;12423;48.768;8.850;2023-04-06T02:02:03;10.45;;;5.10;;
24305;SDS011;12423;48.768;8.850;2023-04-06T02:04:06;10.23;;;5.00;;
24305;SDS011;12423;48.768;8.850;2023-04-06T02:06:07;9.57;;;5.45;;
24305;SDS011;12423;48.768;8.850;2023-04-06T02:08:12;10.00;;;5.65;;
24305;SDS011;12423;48.768;8.850;2023-04-06T02:10:14;11.27;;;6.22;;
24305;SDS011;12423;48.768;8.850;2023-04-06T02:12:17;13.25;;;6.07;;
24305;SDS011;12423;48.768;8.850;2023-04-06T02:14:17;9.93;;;4.70;;
24305;SDS011;12423;48.768;8.850;2023-04-06T02:16:24;9.57;;;4.57;;
24305;SDS011;12423;48.768;8.850;2023-04-06T02:18:25;9.23;;;5.10;;
24305;SDS011;12423;48.768;8.850;2023-04-06T02:20:26;10.30;;;5.55;;
24305;SDS011;12423;48.768;8.850;2023-04-06T02:22:27;8.57;;;5.25;;
24305;SDS011;12423;48.768;8.850;2023-04-06T02:24:28;10.98;;;5.97;;
24305;SDS011;12423;48.768;8.850;2023-04-06T02:26:29;10.00;;;5.72;;
24305;SDS011;12423;48.768;8.850;2023-04-06T02:28:30;9.43;;;5.68;;
24305;SDS011;12423;48.768;8.850;2023-04-06T02:30:31;8.77;;;5.40;;
24305;SDS011;12423;48.768;8.850;2023-04-06T02:32:33;11.20;;;5.38;;
24305;SDS011;12423;48.768;8.850;2023-04-06T02:34:34;10.30;;;5.30;;
24305;SDS011;12423;48.768;8.850;2023-04-06T02:36:35;9.15;;;4.95;;
24305;SDS011;12423;48.768;8.850;2023-04-06T02:38:36;6.63;;;4.32;;
24305;SDS011;12423;48.768;8.850;2023-04-06T02:40:37;9.98;;;5.50;;
24305;SDS011;12423;48.768;8.850;2023-04-06T02:42:49;9.82;;;5.18;;
24305;SDS011;12423;48.768;8.850;2023-04-06T02:44:55;12.07;;;5.78;;
24305;SDS011;12423;48.768;8.850;2023-04-06T02:47:00;10.57;;;5.63;;
24305;SDS011;12423;48.768;8.850;2023-04-06T02:49:01;11.25;;;5.78;;
24305;SDS011;12423;48.768;8.850;2023-04-06T02:51:05;9.65;;;5.25;;
24305;SDS011;12423;48.768;8.850;2023-04-06T02:53:07;9.75;;;5.28;;
24305;SDS011;12423;48.768;8.850;2023-04-06T02:55:11;10.00;;;5.35;;
24305;SDS011;12423;48.768;8.850;2023-04-06T02:57:12;8.38;;;5.10;;
24305;SDS011;12423;48.768;8.850;2023-04-06T02:59:17;10.57;;;5.68;;
24305;SDS011;12423;48.768;8.850;2023-04-06T03:01:28;8.85;;;5.43;;
24305;SDS011;12423;48.768;8.850;2023-04-06T03:03:33;10.23;;;5.30;;
24305;SDS011;12423;48.768;8.850;2023-04-06T03:05:34;11.82;;;5.75;;
24305;SDS011;12423;48.768;8.850;2023-04-06T03:07:36;9.80;;;5.55;;
24305;SDS011;12423;48.768;8.850;2023-04-06T03:09:37;10.68;;;5.65;;
24305;SDS011;12423;48.768;8.850;2023-04-06T03:11:39;11.55;;;4.85;;
24305;SDS011;12423;48.768;8.850;2023-04-06T03:13:40;8.02;;;4.85;;
24305;SDS011;12423;48.768;8.850;2023-04-06T03:15:41;10.00;;;4.90;;
24305;SDS011;12423;48.768;8.850;2023-04-06T03:17:51;10.45;;;5.07;;
24305;SDS011;12423;48.768;8.850;2023-04-06T03:20:14;14.73;;;6.03;;
24305;SDS011;12423;48.768;8.850;2023-04-06T03:22:15;12.65;;;6.00;;
24305;SDS011;12423;48.768;8.850;2023-04-06T03:24:16;13.45;;;5.35;;
24305;SDS011;12423;48.768;8.850;2023-04-06T03:26:17;11.45;;;5.35;;
24305;SDS011;12423;48.768;8.850;2023-04-06T03:28:19;9.70;;;5.43;;
24305;SDS011;12423;48.768;8.850;2023-04-06T03:30:27;8.82;;;5.25;;
24305;SDS011;12423;48.768;8.850;2023-04-06T03:32:28;12.40;;;5.85;;
24305;SDS011;12423;48.768;8.850;2023-04-06T03:34:29;9.13;;;5.35;;
24305;SDS011;12423;48.768;8.850;2023-04-06T03:36:30;11.63;;;6.07;;
24305;SDS011;12423;48.768;8.850;2023-04-06T03:38:32;10.02;;;5.28;;
24305;SDS011;12423;48.768;8.850;2023-04-06T03:40:33;10.77;;;5.78;;
24305;SDS011;12423;48.768;8.850;2023-04-06T03:42:34;9.75;;;4.97;;
24305;SDS011;12423;48.768;8.850;2023-04-06T03:44:40;8.45;;;4.82;;
24305;SDS011;12423;48.768;8.850;2023-04-06T03:46:42;10.32;;;5.25;;
24305;SDS011;12423;48.768;8.850;2023-04-06T03:48:45;13.00;;;6.28;;
24305;SDS011;12423;48.768;8.850;2023-04-06T03:50:48;7.70;;;4.40;;
24305;SDS011;12423;48.768;8.850;2023-04-06T03:52:49;7.57;;;4.78;;
24305;SDS011;12423;48.768;8.850;2023-04-06T03:54:50;9.70;;;4.65;;
24305;SDS011;12423;48.768;8.850;2023-04-06T03:56:51;10.15;;;5.68;;
24305;SDS011;12423;48.768;8.850;2023-04-06T03:58:52;11.57;;;5.22;;
24305;SDS011;12423;48.768;8.850;2023-04-06T04:00:55;11.48;;;4.68;;
24305;SDS011;12423;48.768;8.850;2023-04-06T04:02:56;10.77;;;5.45;;
24305;SDS011;12423;48.768;8.850;2023-04-06T04:04:57;9.90;;;4.93;;
24305;SDS011;12423;48.768;8.850;2023-04-06T04:06:59;10.68;;;5.53;;
24305;SDS011;12423;48.768;8.850;2023-04-06T04:09:00;9.05;;;4.82;;
24305;SDS011;12423;48.768;8.850;2023-04-06T04:11:01;9.73;;;5.20;;
24305;SDS011;12423;48.768;8.850;2023-04-06T04:13:02;11.60;;;4.93;;
24305;SDS011;12423;48.768;8.850;2023-04-06T04:15:04;8.98;;;5.03;;
24305;SDS011;12423;48.768;8.850;2023-04-06T04:17:05;11.57;;;4.82;;
24305;SDS011;12423;48.768;8.850;2023-04-06T04:19:07;8.07;;;4.78;;
24305;SDS011;12423;48.768;8.850;2023-04-06T04:21:08;10.43;;;5.47;;
24305;SDS011;12423;48.768;8.850;2023-04-06T04:23:09;9.93;;;5.88;;
24305;SDS011;12423;48.768;8.850;2023-04-06T04:25:10;8.30;;;4.72;;
24305;SDS011;12423;48.768;8.850;2023-04-06T04:27:17;9.02;;;4.88;;
24305;SDS011;12423;48.768;8.850;2023-04-06T04:29:18;13.93;;;5.28;;
24305;SDS011;12423;48.768;8.850;2023-04-06T04:31:21;8.40;;;5.32;;
24305;SDS011;12423;48.768;8.850;2023-04-06T04:33:27;8.38;;;5.05;;
24305;SDS011;12423;48.768;8.850;2023-04-06T04:35:30;11.63;;;5.53;;
24305;SDS011;12423;48.768;8.850;2023-04-06T04:37:32;13.77;;;6.28;;
24305;SDS011;12423;48.768;8.850;2023-04-06T04:39:33;13.45;;;5.68;;
24305;SDS011;12423;48.768;8.850;2023-04-06T04:41:38;11.00;;;5.70;;
24305;SDS011;12423;48.768;8.850;2023-04-06T04:43:43;12.57;;;6.45;;
24305;SDS011;12423;48.768;8.850;2023-04-06T04:45:46;11.35;;;6.45;;
24305;SDS011;12423;48.768;8.850;2023-04-06T04:48:04;12.05;;;6.35;;
24305;SDS011;12423;48.768;8.850;2023-04-06T04:50:15;12.57;;;6.25;;
24305;SDS011;12423;48.768;8.850;2023-04-06T04:52:19;17.15;;;6.95;;
24305;SDS011;12423;48.768;8.850;2023-04-06T04:54:33;13.98;;;6.60;;
24305;SDS011;12423;48.768;8.850;2023-04-06T04:56:34;13.07;;;6.72;;
24305;SDS011;12423;48.768;8.850;2023-04-06T04:58:58;9.52;;;5.60;;
24305;SDS011;12423;48.768;8.850;2023-04-06T05:01:02;13.35;;;5.80;;
24305;SDS011;12423;48.768;8.850;2023-04-06T05:03:04;11.88;;;5.82;;
24305;SDS011;12423;48.768;8.850;2023-04-06T05:05:09;12.88;;;5.80;;
24305;SDS011;12423;48.768;8.850;2023-04-06T05:07:11;9.05;;;5.60;;
24305;SDS011;12423;48.768;8.850;2023-04-06T05:09:14;12.43;;;5.70;;
24305;SDS011;12423;48.768;8.850;2023-04-06T05:11:17;12.80;;;5.20;;
24305;SDS011;12423;48.768;8.850;2023-04-06T05:13:24;11.90;;;6.47;;
24305;SDS011;12423;48.768;8.850;2023-04-06T05:15:27;9.38;;;5.57;;
24305;SDS011;12423;48.768;8.850;2023-04-06T05:17:33;11.90;;;6.35;;
24305;SDS011;12423;48.768;8.850;2023-04-06T05:19:34;10.30;;;5.28;;
24305;SDS011;12423;48.768;8.850;2023-04-06T05:21:36;12.65;;;6.68;;
24305;SDS011;12423;48.768;8.850;2023-04-06T05:23:40;9.25;;;5.97;;
24305;SDS011;12423;48.768;8.850;2023-04-06T05:25:41;13.00;;;6.65;;
24305;SDS011;12423;48.768;8.850;2023-04-06T05:27:50;19.20;;;6.85;;
24305;SDS011;12423;48.768;8.850;2023-04-06T05:30:02;12.57;;;6.47;;
24305;SDS011;12423;48.768;8.850;2023-04-06T05:32:07;12.20;;;6.47;;
24305;SDS011;12423;48.768;8.850;2023-04-06T05:34:10;16.38;;;6.35;;
24305;SDS011;12423;48.768;8.850;2023-04-06T05:36:11;10.68;;;5.70;;
24305;SDS011;12423;48.768;8.850;2023-04-06T05:38:16;12.57;;;6.25;;
24305;SDS011;12423;48.768;8.850;2023-04-06T05:40:17;12.10;;;6.22;;
24305;SDS011;12423;48.768;8.850;2023-04-06T05:42:18;9.52;;;6.05;;
24305;SDS011;12423;48.768;8.850;2023-04-06T05:44:31;9.60;;;5.90;;
24305;SDS011;12423;48.768;8.850;2023-04-06T05:46:46;13.43;;;6.72;;
24305;SDS011;12423;48.768;8.850;2023-04-06T05:48:50;12.85;;;6.72;;
24305;SDS011;12423;48.768;8.850;2023-04-06T05:50:54;11.13;;;6.38;;
24305;SDS011;12423;48.768;8.850;2023-04-06T05:53:01;14.30;;;8.30;;
24305;SDS011;12423;48.768;8.850;2023-04-06T05:55:09;16.33;;;9.18;;
24305;SDS011;12423;48.768;8.850;2023-04-06T05:57:13;20.42;;;9.93;;
24305;SDS011;12423;48.768;8.850;2023-04-06T05:59:14;22.35;;;10.55;;
24305;SDS011;12423;48.768;8.850;2023-04-06T06:01:18;21.48;;;9.40;;
24305;SDS011;12423;48.768;8.850;2023-04-06T06:03:21;18.30;;;10.02;;
24305;SDS011;12423;48.768;8.850;2023-04-06T06:05:28;18.80;;;9.38;;
24305;SDS011;12423;48.768;8.850;2023-04-06T06:07:32;17.88;;;8.50;;
24305;SDS011;12423;48.768;8.850;2023-04-06T06:09:36;12.57;;;7.35;;
24305;SDS011;12423;48.768;8.850;2023-04-06T06:11:50;11.70;;;6.45;;
24305;SDS011;12423;48.768;8.850;2023-04-06T06:13:54;13.48;;;6.65;;
24305;SDS011;12423;48.768;8.850;2023-04-06T06:15:55;10.57;;;6.57;;
24305;SDS011;12423;48.768;8.850;2023-04-06T06:17:57;14.43;;;6.15;;
24305;SDS011;12423;48.768;8.850;2023-04-06T06:19:59;11.70;;;5.70;;
24305;SDS011;12423;48.768;8.850;2023-04-06T06:22:02;8.32;;;5.65;;
24305;SDS011;12423;48.768;8.850;2023-04-06T06:24:04;9.45;;;6.38;;
24305;SDS011;12423;48.768;8.850;2023-04-06T06:26:05;13.95;;;6.85;;
24305;SDS011;12423;48.768;8.850;2023-04-06T06:28:06;9.00;;;5.45;;
24305;SDS011;12423;48.768;8.850;2023-04-06T06:30:08;11.77;;;6.22;;
24305;SDS011;12423;48.768;8.850;2023-04-06T06:32:12;11.55;;;6.03;;
24305;SDS011;12423;48.768;8.850;2023-04-06T06:34:15;9.70;;;6.10;;
24305;SDS011;12423;48.768;8.850;2023-04-06T06:36:17;14.98;;;5.78;;
24305;SDS011;12423;48.768;8.850;2023-04-06T06:38:18;10.95;;;6.25;;
24305;SDS011;12423;48.768;8.850;2023-04-06T06:40:20;10.27;;;5.65;;
24305;SDS011;12423;48.768;8.850;2023-04-06T06:42:24;11.18;;;7.10;;
24305;SDS011;12423;48.768;8.850;2023-04-06T06:44:36;14.93;;;6.07;;
24305;SDS011;12423;48.768;8.850;2023-04-06T06:46:37;15.18;;;6.55;;
24305;SDS011;12423;48.768;8.850;2023-04-06T06:48:38;15.05;;;7.70;;
24305;SDS011;12423;48.768;8.850;2023-04-06T06:50:39;11.32;;;6.68;;
24305;SDS011;12423;48.768;8.850;2023-04-06T06:52:40;12.48;;;6.53;;
24305;SDS011;12423;48.768;8.850;2023-04-06T06:54:41;9.15;;;6.22;;
24305;SDS011;12423;48.768;8.850;2023-04-06T06:56:42;13.38;;;6.47;;
24305;SDS011;12423;48.768;8.850;2023-04-06T06:58:44;12.30;;;6.75;;
24305;SDS011;12423;48.768;8.850;2023-04-06T07:00:45;10.43;;;6.40;;
24305;SDS011;12423;48.768;8.850;2023-04-06T07:02:47;11.75;;;6.85;;
24305;SDS011;12423;48.768;8.850;2023-04-06T07:04:48;19.73;;;6.47;;
24305;SDS011;12423;48.768;8.850;2023-04-06T07:06:50;11.05;;;6.47;;
24305;SDS011;12423;48.768;8.850;2023-04-06T07:08:53;12.82;;;6.47;;
24305;SDS011;12423;48.768;8.850;2023-04-06T07:10:54;10.05;;;5.72;;
24305;SDS011;12423;48.768;8.850;2023-04-06T07:12:56;13.70;;;6.22;;
24305;SDS011;12423;48.768;8.850;2023-04-06T07:14:57;13.18;;;6.30;;
24305;SDS011;12423;48.768;8.850;2023-04-06T07:16:58;13.25;;;6.85;;
24305;SDS011;12423;48.768;8.850;2023-04-06T07:18:59;14.90;;;6.63;;
24305;SDS011;12423;48.768;8.850;2023-04-06T07:21:01;16.02;;;6.60;;
24305;SDS011;12423;48.768;8.850;2023-04-06T07:23:02;11.25;;;6.70;;
24305;SDS011;12423;48.768;8.850;2023-04-06T07:25:04;11.25;;;7.05;;
24305;SDS011;12423;48.768;8.850;2023-04-06T07:27:05;11.27;;;6.55;;
24305;SDS011;12423;48.768;8.850;2023-04-06T07:29:06;11.18;;;6.47;;
24305;SDS011;12423;48.768;8.850;2023-04-06T07:31:07;10.60;;;6.45;;
24305;SDS011;12423;48.768;8.850;2023-04-06T07:33:09;11.70;;;6.50;;
24305;SDS011;12423;48.768;8.850;2023-04-06T07:35:11;11.65;;;6.85;;
24305;SDS011;12423;48.768;8.850;2023-04-06T07:37:12;11.40;;;6.15;;
24305;SDS011;12423;48.768;8.850;2023-04-06T07:39:13;11.60;;;6.90;;
24305;SDS011;12423;48.768;8.850;2023-04-06T07:41:15;13.57;;;6.72;;
24305;SDS011;12423;48.768;8.850;2023-04-06T07:43:17;13.57;;;6.07;;
24305;SDS011;12423;48.768;8.850;2023-04-06T07:45:18;8.35;;;5.72;;
24305;SDS011;12423;48.768;8.850;2023-04-06T07:47:20;10.93;;;6.47;;
24305;SDS011;12423;48.768;8.850;2023-04-06T07:49:21;11.77;;;5.75;;
24305;SDS011;12423;48.768;8.850;2023-04-06T07:51:23;10.30;;;6.00;;
24305;SDS011;12423;48.768;8.850;2023-04-06T07:53:26;10.95;;;5.93;;
24305;SDS011;12423;48.768;8.850;2023-04-06T07:55:27;10.93;;;6.00;;
24305;SDS011;12423;48.768;8.850;2023-04-06T07:57:28;14.43;;;6.03;;
24305;SDS011;12423;48.768;8.850;2023-04-06T07:59:29;12.40;;;6.65;;
24305;SDS011;12423;48.768;8.850;2023-04-06T08:01:30;9.45;;;5.78;;
24305;SDS011;12423;48.768;8.850;2023-04-06T08:03:33;13.25;;;6.32;;
24305;SDS011;12423;48.768;8.850;2023-04-06T08:05:34;11.38;;;6.10;;
24305;SDS011;12423;48.768;8.850;2023-04-06T08:07:35;9.73;;;6.13;;
24305;SDS011;12423;48.768;8.850;2023-04-06T08:09:37;8.13;;;4.82;;
24305;SDS011;12423;48.768;8.850;2023-04-06T08:11:38;11.52;;;6.55;;
24305;SDS011;12423;48.768;8.850;2023-04-06T08:13:39;14.55;;;5.88;;
24305;SDS011;12423;48.768;8.850;2023-04-06T08:15:40;12.25;;;6.32;;
24305;SDS011;12423;48.768;8.850;2023-04-06T08:17:41;10.50;;;5.75;;
24305;SDS011;12423;48.768;8.850;2023-04-06T08:19:43;11.73;;;6.55;;
24305;SDS011;12423;48.768;8.850;2023-04-06T08:21:45;11.30;;;6.45;;
24305;SDS011;12423;48.768;8.850;2023-04-06T08:23:46;12.05;;;5.75;;
24305;SDS011;12423;48.768;8.850;2023-04-06T08:25:47;11.40;;;5.35;;
24305;SDS011;12423;48.768;8.850;2023-04-06T08:27:48;9.50;;;5.25;;
24305;SDS011;12423;48.768;8.850;2023-04-06T08:29:49;8.60;;;4.78;;
24305;SDS011;12423;48.768;8.850;2023-04-06T08:31:51;11.85;;;6.47;;
24305;SDS011;12423;48.768;8.850;2023-04-06T08:33:52;12.40;;;5.95;;
24305;SDS011;12423;48.768;8.850;2023-04-06T08:35:53;9.40;;;5.55;;
24305;SDS011;12423;48.768;8.850;2023-04-06T08:37:54;7.68;;;4.50;;
24305;SDS011;12423;48.768;8.850;2023-04-06T08:39:55;9.52;;;4.88;;
24305;SDS011;12423;48.768;8.850;2023-04-06T08:41:56;10.07;;;5.25;;
24305;SDS011;12423;48.768;8.850;2023-04-06T08:43:59;8.00;;;5.32;;
24305;SDS011;12423;48.768;8.850;2023-04-06T08:46:01;8.63;;;4.80;;
24305;SDS011;12423;48.768;8.850;2023-04-06T08:48:02;10.65;;;5.03;;
24305;SDS011;12423;48.768;8.850;2023-04-06T08:50:04;10.20;;;5.43;;
24305;SDS011;12423;48.768;8.850;2023-04-06T08:52:06;8.95;;;4.85;;
24305;SDS011;12423;48.768;8.850;2023-04-06T08:54:08;10.35;;;5.53;;
24305;SDS011;12423;48.768;8.850;2023-04-06T08:56:09;7.88;;;5.20;;
24305;SDS011;12423;48.768;8.850;2023-04-06T08:58:11;9.25;;;5.55;;
24305;SDS011;12423;48.768;8.850;2023-04-06T09:00:13;9.38;;;5.28;;
24305;SDS011;12423;48.768;8.850;2023-04-06T09:02:18;10.05;;;6.07;;
24305;SDS011;12423;48.768;8.850;2023-04-06T09:04:19;9.70;;;5.07;;
24305;SDS011;12423;48.768;8.850;2023-04-06T09:06:20;9.52;;;5.28;;
24305;SDS011;12423;48.768;8.850;2023-04-06T09:08:21;10.05;;;5.28;;
24305;SDS011;12423;48.768;8.850;2023-04-06T09:10:22;8.25;;;4.88;;
24305;SDS011;12423;48.768;8.850;2023-04-06T09:12:26;10.57;;;4.85;;
24305;SDS011;12423;48.768;8.850;2023-04-06T09:14:35;9.43;;;5.55;;
24305;SDS011;12423;48.768;8.850;2023-04-06T09:16:44;13.80;;;6.07;;
24305;SDS011;12423;48.768;8.850;2023-04-06T09:18:46;9.30;;;5.50;;
24305;SDS011;12423;48.768;8.850;2023-04-06T09:20:56;9.43;;;5.03;;
24305;SDS011;12423;48.768;8.850;2023-04-06T09:23:04;11.13;;;5.32;;
24305;SDS011;12423;48.768;8.850;2023-04-06T09:25:05;8.02;;;5.07;;
24305;SDS011;12423;48.768;8.850;2023-04-06T09:27:06;8.93;;;5.32;;
24305;SDS011;12423;48.768;8.850;2023-04-06T09:29:07;9.13;;;5.00;;
24305;SDS011;12423;48.768;8.850;2023-04-06T09:31:08;12.15;;;5.70;;
24305;SDS011;12423;48.768;8.850;2023-04-06T09:33:12;11.05;;;5.75;;
24305;SDS011;12423;48.768;8.850;2023-04-06T09:35:13;10.05;;;5.65;;
24305;SDS011;12423;48.768;8.850;2023-04-06T09:37:15;8.75;;;5.50;;
24305;SDS011;12423;48.768;8.850;2023-04-06T09:39:20;11.02;;;5.65;;
24305;SDS011;12423;48.768;8.850;2023-04-06T09:41:25;9.32;;;5.03;;
24305;SDS011;12423;48.768;8.850;2023-04-06T09:43:30;8.90;;;5.38;;
24305;SDS011;12423;48.768;8.850;2023-04-06T09:45:31;10.77;;;4.88;;
24305;SDS011;12423;48.768;8.850;2023-04-06T09:47:32;8.90;;;4.47;;
24305;SDS011;12423;48.768;8.850;2023-04-06T09:49:36;8.70;;;5.05;;
24305;SDS011;12423;48.768;8.850;2023-04-06T09:51:43;10.63;;;5.35;;
24305;SDS011;12423;48.768;8.850;2023-04-06T09:53:47;8.70;;;4.63;;
24305;SDS011;12423;48.768;8.850;2023-04-06T09:55:53;10.38;;;5.30;;
24305;SDS011;12423;48.768;8.850;2023-04-06T09:58:06;10.18;;;5.10;;
24305;SDS011;12423;48.768;8.850;2023-04-06T10:00:10;10.05;;;5.70;;
24305;SDS011;12423;48.768;8.850;2023-04-06T10:03:02;10.93;;;5.70;;
24305;SDS011;12423;48.768;8.850;2023-04-06T10:07:13;11.88;;;5.60;;
24305;SDS011;12423;48.768;8.850;2023-04-06T10:09:16;8.18;;;5.22;;
24305;SDS011;12423;48.768;8.850;2023-04-06T10:11:17;11.75;;;5.95;;
24305;SDS011;12423;48.768;8.850;2023-04-06T10:13:19;8.30;;;5.00;;
24305;SDS011;12423;48.768;8.850;2023-04-06T10:15:20;9.60;;;5.30;;
24305;SDS011;12423;48.768;8.850;2023-04-06T10:17:21;8.60;;;4.93;;
24305;SDS011;12423;48.768;8.850;2023-04-06T10:19:27;9.38;;;5.45;;
24305;SDS011;12423;48.768;8.850;2023-04-06T10:21:34;10.07;;;4.75;;
24305;SDS011;12423;48.768;8.850;2023-04-06T10:23:39;9.20;;;5.15;;
24305;SDS011;12423;48.768;8.850;2023-04-06T10:25:53;8.43;;;5.07;;
24305;SDS011;12423;48.768;8.850;2023-04-06T10:28:06;8.88;;;5.13;;
24305;SDS011;12423;48.768;8.850;2023-04-06T10:30:08;10.13;;;5.47;;
24305;SDS011;12423;48.768;8.850;2023-04-06T10:32:09;8.07;;;4.65;;
24305;SDS011;12423;48.768;8.850;2023-04-06T10:34:10;8.48;;;5.18;;
24305;SDS011;12423;48.768;8.850;2023-04-06T10:36:14;13.07;;;5.50;;
24305;SDS011;12423;48.768;8.850;2023-04-06T10:38:32;10.00;;;5.45;;
24305;SDS011;12423;48.768;8.850;2023-04-06T10:40:38;9.98;;;4.97;;
24305;SDS011;12423;48.768;8.850;2023-04-06T10:42:40;11.23;;;5.20;;
24305;SDS011;12423;48.768;8.850;2023-04-06T10:44:44;6.97;;;4.40;;
24305;SDS011;12423;48.768;8.850;2023-04-06T10:46:55;10.10;;;4.72;;
24305;SDS011;12423;48.768;8.850;2023-04-06T10:49:11;8.82;;;4.95;;
24305;SDS011;12423;48.768;8.850;2023-04-06T10:51:13;7.95;;;4.85;;
24305;SDS011;12423;48.768;8.850;2023-04-06T10:55:23;9.05;;;4.85;;
24305;SDS011;12423;48.768;8.850;2023-04-06T10:57:29;8.68;;;5.30;;
24305;SDS011;12423;48.768;8.850;2023-04-06T10:59:31;6.53;;;4.18;;
24305;SDS011;12423;48.768;8.850;2023-04-06T11:01:32;6.80;;;4.40;;
24305;SDS011;12423;48.768;8.850;2023-04-06T11:03:41;6.50;;;4.32;;
24305;SDS011;12423;48.768;8.850;2023-04-06T11:05:46;10.43;;;4.70;;
24305;SDS011;12423;48.768;8.850;2023-04-06T11:07:49;6.15;;;4.28;;
24305;SDS011;12423;48.768;8.850;2023-04-06T11:09:50;7.00;;;4.45;;
24305;SDS011;12423;48.768;8.850;2023-04-06T11:11:51;6.22;;;3.85;;
24305;SDS011;12423;48.768;8.850;2023-04-06T11:13:55;8.85;;;4.32;;
24305;SDS011;12423;48.768;8.850;2023-04-06T11:15:57;9.15;;;4.47;;
24305;SDS011;12423;48.768;8.850;2023-04-06T11:17:58;6.90;;;4.50;;
24305;SDS011;12423;48.768;8.850;2023-04-06T11:20:09;6.25;;;4.25;;
24305;SDS011;12423;48.768;8.850;2023-04-06T11:22:11;6.22;;;4.50;;
24305;SDS011;12423;48.768;8.850;2023-04-06T11:26:17;6.57;;;4.57;;
24305;SDS011;12423;48.768;8.850;2023-04-06T11:28:18;6.57;;;4.72;;
24305;SDS011;12423;48.768;8.850;2023-04-06T11:30:20;7.07;;;4.82;;
24305;SDS011;12423;48.768;8.850;2023-04-06T11:32:21;7.22;;;4.30;;
24305;SDS011;12423;48.768;8.850;2023-04-06T11:34:23;6.82;;;4.78;;
24305;SDS011;12423;48.768;8.850;2023-04-06T11:36:27;7.18;;;4.35;;
24305;SDS011;12423;48.768;8.850;2023-04-06T11:38:30;9.57;;;4.65;;
24305;SDS011;12423;48.768;8.850;2023-04-06T11:40:31;10.75;;;5.10;;
24305;SDS011;12423;48.768;8.850;2023-04-06T11:42:34;8.93;;;5.50;;
24305;SDS011;12423;48.768;8.850;2023-04-06T11:44:36;7.28;;;4.85;;
24305;SDS011;12423;48.768;8.850;2023-04-06T11:46:51;9.27;;;4.70;;
24305;SDS011;12423;48.768;8.850;2023-04-06T11:48:52;7.82;;;5.70;;
24305;SDS011;12423;48.768;8.850;2023-04-06T11:50:59;7.95;;;5.07;;
24305;SDS011;12423;48.768;8.850;2023-04-06T11:53:01;7.18;;;4.70;;
24305;SDS011;12423;48.768;8.850;2023-04-06T11:55:13;8.02;;;5.22;;
24305;SDS011;12423;48.768;8.850;2023-04-06T11:57:18;8.20;;;5.10;;
24305;SDS011;12423;48.768;8.850;2023-04-06T11:59:20;10.35;;;5.63;;
24305;SDS011;12423;48.768;8.850;2023-04-06T12:01:22;6.30;;;3.95;;
24305;SDS011;12423;48.768;8.850;2023-04-06T12:03:24;7.32;;;4.90;;
24305;SDS011;12423;48.768;8.850;2023-04-06T12:05:25;7.07;;;5.07;;
24305;SDS011;12423;48.768;8.850;2023-04-06T12:07:25;7.13;;;4.55;;
24305;SDS011;12423;48.768;8.850;2023-04-06T12:09:26;7.30;;;4.18;;
24305;SDS011;12423;48.768;8.850;2023-04-06T12:11:28;6.65;;;4.93;;
24305;SDS011;12423;48.768;8.850;2023-04-06T12:13:28;6.32;;;4.45;;
24305;SDS011;12423;48.768;8.850;2023-04-06T12:15:30;6.93;;;4.35;;
24305;SDS011;12423;48.768;8.850;2023-04-06T12:17:31;7.95;;;4.43;;
24305;SDS011;12423;48.768;8.850;2023-04-06T12:19:32;6.78;;;4.38;;
24305;SDS011;12423;48.768;8.850;2023-04-06T12:21:34;4.93;;;3.83;;
24305;SDS011;12423;48.768;8.850;2023-04-06T12:23:36;6.35;;;4.32;;
24305;SDS011;12423;48.768;8.850;2023-04-06T12:25:39;6.55;;;4.63;;